sensor_id;sensor_type;location;lat;lon;timestamp;P1;durP1;ratioP1;P2;durP2;ratioP2
57303;SDS011;43150;50.986;18.208;2023-02-13T00:02:22;36.20;;;20.60;;
57303;SDS011;43150;50.986;18.208;2023-02-13T00:04:47;42.70;;;20.50;;
57303;SDS011;43150;50.986;18.208;2023-02-13T00:07:13;42.90;;;22.10;;
57303;SDS011;43150;50.986;18.208;2023-02-13T00:09:41;33.80;;;17.80;;
57303;SDS011;43150;50.986;18.208;2023-02-13T00:12:07;33.90;;;18.50;;
57303;SDS011;43150;50.986;18.208;2023-02-13T00:14:36;35.20;;;17.60;;
57303;SDS011;43150;50.986;18.208;2023-02-13T00:17:02;38.00;;;17.70;;
57303;SDS011;43150;50.986;18.208;2023-02-13T00:19:28;34.00;;;16.70;;
57303;SDS011;43150;50.986;18.208;2023-02-13T00:21:57;35.80;;;18.00;;
57303;SDS011;43150;50.986;18.208;2023-02-13T00:24:23;26.30;;;13.50;;
57303;SDS011;43150;50.986;18.208;2023-02-13T00:26:49;35.40;;;16.20;;
57303;SDS011;43150;50.986;18.208;2023-02-13T00:29:14;28.10;;;15.90;;
57303;SDS011;43150;50.986;18.208;2023-02-13T00:31:40;39.10;;;17.70;;
57303;SDS011;43150;50.986;18.208;2023-02-13T00:34:08;39.70;;;17.10;;
57303;SDS011;43150;50.986;18.208;2023-02-13T00:36:34;36.40;;;16.80;;
57303;SDS011;43150;50.986;18.208;2023-02-13T00:39:00;29.00;;;13.60;;
57303;SDS011;43150;50.986;18.208;2023-02-13T00:41:35;35.80;;;16.80;;
57303;SDS011;43150;50.986;18.208;2023-02-13T00:44:04;34.40;;;16.60;;
57303;SDS011;43150;50.986;18.208;2023-02-13T00:46:29;42.60;;;17.50;;
57303;SDS011;43150;50.986;18.208;2023-02-13T00:49:03;34.20;;;15.80;;
57303;SDS011;43150;50.986;18.208;2023-02-13T00:51:29;42.70;;;19.40;;
57303;SDS011;43150;50.986;18.208;2023-02-13T00:53:54;40.00;;;17.30;;
57303;SDS011;43150;50.986;18.208;2023-02-13T00:56:20;39.50;;;16.80;;
57303;SDS011;43150;50.986;18.208;2023-02-13T00:58:46;32.70;;;16.20;;
57303;SDS011;43150;50.986;18.208;2023-02-13T01:01:12;38.90;;;17.10;;
57303;SDS011;43150;50.986;18.208;2023-02-13T01:03:38;40.30;;;18.20;;
57303;SDS011;43150;50.986;18.208;2023-02-13T01:06:05;35.60;;;16.20;;
57303;SDS011;43150;50.986;18.208;2023-02-13T01:08:30;32.50;;;14.30;;
57303;SDS011;43150;50.986;18.208;2023-02-13T01:10:59;30.10;;;14.70;;
57303;SDS011;43150;50.986;18.208;2023-02-13T01:13:29;39.90;;;16.70;;
57303;SDS011;43150;50.986;18.208;2023-02-13T01:16:01;35.80;;;16.20;;
57303;SDS011;43150;50.986;18.208;2023-02-13T01:18:30;32.50;;;15.40;;
57303;SDS011;43150;50.986;18.208;2023-02-13T01:20:58;35.90;;;14.70;;
57303;SDS011;43150;50.986;18.208;2023-02-13T01:23:23;40.20;;;17.80;;
57303;SDS011;43150;50.986;18.208;2023-02-13T01:25:49;39.60;;;16.30;;
57303;SDS011;43150;50.986;18.208;2023-02-13T01:28:16;39.10;;;16.80;;
57303;SDS011;43150;50.986;18.208;2023-02-13T01:30:42;30.60;;;14.70;;
57303;SDS011;43150;50.986;18.208;2023-02-13T01:33:16;42.50;;;18.10;;
57303;SDS011;43150;50.986;18.208;2023-02-13T01:35:42;33.20;;;14.50;;
57303;SDS011;43150;50.986;18.208;2023-02-13T01:38:07;32.70;;;15.40;;
57303;SDS011;43150;50.986;18.208;2023-02-13T01:40:34;35.80;;;17.70;;
57303;SDS011;43150;50.986;18.208;2023-02-13T01:43:00;31.60;;;15.70;;
57303;SDS011;43150;50.986;18.208;2023-02-13T01:45:26;41.50;;;18.50;;
57303;SDS011;43150;50.986;18.208;2023-02-13T01:47:59;32.00;;;15.80;;
57303;SDS011;43150;50.986;18.208;2023-02-13T01:53:09;33.50;;;14.70;;
57303;SDS011;43150;50.986;18.208;2023-02-13T01:55:38;35.00;;;16.20;;
57303;SDS011;43150;50.986;18.208;2023-02-13T01:58:07;31.50;;;14.40;;
57303;SDS011;43150;50.986;18.208;2023-02-13T02:00:34;34.50;;;15.50;;
57303;SDS011;43150;50.986;18.208;2023-02-13T02:03:02;33.30;;;15.40;;
57303;SDS011;43150;50.986;18.208;2023-02-13T02:05:29;32.70;;;15.50;;
57303;SDS011;43150;50.986;18.208;2023-02-13T02:07:56;44.30;;;18.20;;
57303;SDS011;43150;50.986;18.208;2023-02-13T02:10:24;33.00;;;14.60;;
57303;SDS011;43150;50.986;18.208;2023-02-13T02:15:15;30.30;;;14.00;;
57303;SDS011;43150;50.986;18.208;2023-02-13T02:17:41;37.90;;;16.50;;
57303;SDS011;43150;50.986;18.208;2023-02-13T02:43:21;28.10;;;14.30;;
57303;SDS011;43150;50.986;18.208;2023-02-13T02:48:39;31.30;;;14.20;;
57303;SDS011;43150;50.986;18.208;2023-02-13T02:56:49;31.80;;;15.40;;
57303;SDS011;43150;50.986;18.208;2023-02-13T02:59:19;35.00;;;17.00;;
57303;SDS011;43150;50.986;18.208;2023-02-13T03:02:04;46.20;;;20.00;;
57303;SDS011;43150;50.986;18.208;2023-02-13T03:04:50;33.30;;;17.50;;
57303;SDS011;43150;50.986;18.208;2023-02-13T03:07:36;28.50;;;15.00;;
57303;SDS011;43150;50.986;18.208;2023-02-13T03:10:05;40.90;;;20.10;;
57303;SDS011;43150;50.986;18.208;2023-02-13T03:12:51;36.80;;;18.10;;
57303;SDS011;43150;50.986;18.208;2023-02-13T03:15:41;38.50;;;19.90;;
57303;SDS011;43150;50.986;18.208;2023-02-13T03:18:26;39.40;;;19.80;;
57303;SDS011;43150;50.986;18.208;2023-02-13T03:21:18;39.50;;;19.40;;
57303;SDS011;43150;50.986;18.208;2023-02-13T03:27:14;41.60;;;21.20;;
57303;SDS011;43150;50.986;18.208;2023-02-13T03:30:05;37.40;;;19.50;;
57303;SDS011;43150;50.986;18.208;2023-02-13T03:37:53;40.80;;;21.00;;
57303;SDS011;43150;50.986;18.208;2023-02-13T03:45:38;41.70;;;20.20;;
57303;SDS011;43150;50.986;18.208;2023-02-13T03:48:18;37.10;;;20.60;;
57303;SDS011;43150;50.986;18.208;2023-02-13T03:51:09;39.30;;;21.20;;
57303;SDS011;43150;50.986;18.208;2023-02-13T03:53:37;36.20;;;19.70;;
57303;SDS011;43150;50.986;18.208;2023-02-13T03:56:04;32.70;;;15.50;;
57303;SDS011;43150;50.986;18.208;2023-02-13T03:58:53;24.70;;;12.50;;
57303;SDS011;43150;50.986;18.208;2023-02-13T04:01:40;29.30;;;13.90;;
57303;SDS011;43150;50.986;18.208;2023-02-13T04:04:11;24.50;;;12.40;;
57303;SDS011;43150;50.986;18.208;2023-02-13T04:06:48;27.50;;;14.50;;
57303;SDS011;43150;50.986;18.208;2023-02-13T04:09:15;33.80;;;15.20;;
57303;SDS011;43150;50.986;18.208;2023-02-13T04:11:44;31.40;;;15.20;;
57303;SDS011;43150;50.986;18.208;2023-02-13T04:14:15;29.00;;;14.90;;
57303;SDS011;43150;50.986;18.208;2023-02-13T04:16:51;35.80;;;17.20;;
57303;SDS011;43150;50.986;18.208;2023-02-13T04:19:17;29.40;;;16.60;;
57303;SDS011;43150;50.986;18.208;2023-02-13T04:21:44;35.20;;;19.60;;
57303;SDS011;43150;50.986;18.208;2023-02-13T04:24:13;30.90;;;16.20;;
57303;SDS011;43150;50.986;18.208;2023-02-13T04:26:42;31.80;;;17.60;;
57303;SDS011;43150;50.986;18.208;2023-02-13T04:29:15;29.40;;;16.30;;
57303;SDS011;43150;50.986;18.208;2023-02-13T04:31:40;29.20;;;16.20;;
57303;SDS011;43150;50.986;18.208;2023-02-13T04:34:06;28.70;;;16.30;;
57303;SDS011;43150;50.986;18.208;2023-02-13T04:36:31;28.80;;;17.50;;
57303;SDS011;43150;50.986;18.208;2023-02-13T04:38:59;29.70;;;18.10;;
57303;SDS011;43150;50.986;18.208;2023-02-13T04:41:25;30.00;;;17.90;;
57303;SDS011;43150;50.986;18.208;2023-02-13T04:43:50;24.90;;;15.90;;
57303;SDS011;43150;50.986;18.208;2023-02-13T04:46:16;27.20;;;15.80;;
57303;SDS011;43150;50.986;18.208;2023-02-13T04:48:42;27.30;;;15.10;;
57303;SDS011;43150;50.986;18.208;2023-02-13T04:51:15;21.10;;;11.80;;
57303;SDS011;43150;50.986;18.208;2023-02-13T04:53:41;23.40;;;13.00;;
57303;SDS011;43150;50.986;18.208;2023-02-13T04:56:06;24.30;;;11.90;;
57303;SDS011;43150;50.986;18.208;2023-02-13T04:58:32;21.90;;;10.70;;
57303;SDS011;43150;50.986;18.208;2023-02-13T05:00:58;21.20;;;11.00;;
57303;SDS011;43150;50.986;18.208;2023-02-13T05:03:23;22.10;;;11.20;;
57303;SDS011;43150;50.986;18.208;2023-02-13T05:05:54;22.40;;;11.80;;
57303;SDS011;43150;50.986;18.208;2023-02-13T05:08:20;18.70;;;11.40;;
57303;SDS011;43150;50.986;18.208;2023-02-13T05:10:47;20.40;;;11.20;;
57303;SDS011;43150;50.986;18.208;2023-02-13T05:13:12;22.80;;;11.90;;
57303;SDS011;43150;50.986;18.208;2023-02-13T05:15:38;20.70;;;11.40;;
57303;SDS011;43150;50.986;18.208;2023-02-13T05:18:04;23.20;;;10.70;;
57303;SDS011;43150;50.986;18.208;2023-02-13T05:20:29;23.40;;;12.70;;
57303;SDS011;43150;50.986;18.208;2023-02-13T05:22:55;24.50;;;12.50;;
57303;SDS011;43150;50.986;18.208;2023-02-13T05:25:40;21.50;;;12.60;;
57303;SDS011;43150;50.986;18.208;2023-02-13T05:28:07;18.30;;;9.50;;
57303;SDS011;43150;50.986;18.208;2023-02-13T05:30:52;23.10;;;11.10;;
57303;SDS011;43150;50.986;18.208;2023-02-13T05:33:17;23.90;;;11.00;;
57303;SDS011;43150;50.986;18.208;2023-02-13T05:35:43;16.70;;;9.50;;
57303;SDS011;43150;50.986;18.208;2023-02-13T05:38:08;19.50;;;11.00;;
57303;SDS011;43150;50.986;18.208;2023-02-13T05:40:34;17.60;;;9.70;;
57303;SDS011;43150;50.986;18.208;2023-02-13T05:43:02;19.70;;;11.70;;
57303;SDS011;43150;50.986;18.208;2023-02-13T05:45:28;17.70;;;10.30;;
57303;SDS011;43150;50.986;18.208;2023-02-13T05:47:53;22.40;;;11.50;;
57303;SDS011;43150;50.986;18.208;2023-02-13T05:50:19;19.00;;;11.60;;
57303;SDS011;43150;50.986;18.208;2023-02-13T05:52:45;23.80;;;14.10;;
57303;SDS011;43150;50.986;18.208;2023-02-13T05:55:11;29.10;;;18.90;;
57303;SDS011;43150;50.986;18.208;2023-02-13T05:57:37;37.20;;;21.60;;
57303;SDS011;43150;50.986;18.208;2023-02-13T06:00:03;33.40;;;17.50;;
57303;SDS011;43150;50.986;18.208;2023-02-13T06:02:29;22.50;;;12.90;;
57303;SDS011;43150;50.986;18.208;2023-02-13T06:04:56;21.50;;;12.60;;
57303;SDS011;43150;50.986;18.208;2023-02-13T06:07:21;21.20;;;12.20;;
57303;SDS011;43150;50.986;18.208;2023-02-13T06:09:47;23.30;;;13.40;;
57303;SDS011;43150;50.986;18.208;2023-02-13T06:12:13;21.90;;;12.50;;
57303;SDS011;43150;50.986;18.208;2023-02-13T06:14:40;22.70;;;13.10;;
57303;SDS011;43150;50.986;18.208;2023-02-13T06:17:05;24.00;;;13.20;;
57303;SDS011;43150;50.986;18.208;2023-02-13T06:19:32;26.10;;;14.70;;
57303;SDS011;43150;50.986;18.208;2023-02-13T06:21:57;28.70;;;16.40;;
57303;SDS011;43150;50.986;18.208;2023-02-13T06:24:26;31.70;;;20.10;;
57303;SDS011;43150;50.986;18.208;2023-02-13T06:26:55;29.30;;;18.10;;
57303;SDS011;43150;50.986;18.208;2023-02-13T06:29:29;31.50;;;19.20;;
57303;SDS011;43150;50.986;18.208;2023-02-13T06:31:58;27.40;;;15.50;;
57303;SDS011;43150;50.986;18.208;2023-02-13T06:34:24;20.90;;;12.70;;
57303;SDS011;43150;50.986;18.208;2023-02-13T06:36:49;20.90;;;13.00;;
57303;SDS011;43150;50.986;18.208;2023-02-13T06:39:17;24.00;;;13.00;;
57303;SDS011;43150;50.986;18.208;2023-02-13T06:41:43;24.00;;;13.60;;
57303;SDS011;43150;50.986;18.208;2023-02-13T06:44:08;24.70;;;13.60;;
57303;SDS011;43150;50.986;18.208;2023-02-13T06:46:34;24.60;;;13.00;;
57303;SDS011;43150;50.986;18.208;2023-02-13T06:49:00;25.20;;;14.20;;
57303;SDS011;43150;50.986;18.208;2023-02-13T06:51:26;25.00;;;14.80;;
57303;SDS011;43150;50.986;18.208;2023-02-13T06:53:51;24.00;;;14.80;;
57303;SDS011;43150;50.986;18.208;2023-02-13T06:56:20;25.30;;;15.00;;
57303;SDS011;43150;50.986;18.208;2023-02-13T06:58:52;27.00;;;13.40;;
57303;SDS011;43150;50.986;18.208;2023-02-13T07:01:23;26.10;;;14.70;;
57303;SDS011;43150;50.986;18.208;2023-02-13T07:03:59;28.30;;;15.90;;
57303;SDS011;43150;50.986;18.208;2023-02-13T07:06:27;24.70;;;15.50;;
57303;SDS011;43150;50.986;18.208;2023-02-13T07:08:53;24.70;;;13.60;;
57303;SDS011;43150;50.986;18.208;2023-02-13T07:11:20;22.90;;;13.20;;
57303;SDS011;43150;50.986;18.208;2023-02-13T07:13:49;23.30;;;13.50;;
57303;SDS011;43150;50.986;18.208;2023-02-13T07:16:15;24.90;;;16.30;;
57303;SDS011;43150;50.986;18.208;2023-02-13T07:18:43;26.30;;;17.10;;
57303;SDS011;43150;50.986;18.208;2023-02-13T07:21:10;34.50;;;18.60;;
57303;SDS011;43150;50.986;18.208;2023-02-13T07:23:50;30.00;;;16.80;;
57303;SDS011;43150;50.986;18.208;2023-02-13T07:26:18;25.60;;;15.30;;
57303;SDS011;43150;50.986;18.208;2023-02-13T07:28:46;26.80;;;16.40;;
57303;SDS011;43150;50.986;18.208;2023-02-13T07:31:11;26.50;;;16.30;;
57303;SDS011;43150;50.986;18.208;2023-02-13T07:33:37;24.00;;;13.80;;
57303;SDS011;43150;50.986;18.208;2023-02-13T07:36:03;27.60;;;15.20;;
57303;SDS011;43150;50.986;18.208;2023-02-13T07:38:29;18.80;;;10.40;;
57303;SDS011;43150;50.986;18.208;2023-02-13T07:40:58;19.00;;;12.00;;
57303;SDS011;43150;50.986;18.208;2023-02-13T07:43:24;19.60;;;11.70;;
57303;SDS011;43150;50.986;18.208;2023-02-13T07:45:50;18.50;;;12.00;;
57303;SDS011;43150;50.986;18.208;2023-02-13T07:48:22;20.10;;;11.20;;
57303;SDS011;43150;50.986;18.208;2023-02-13T07:50:48;15.60;;;9.50;;
57303;SDS011;43150;50.986;18.208;2023-02-13T07:53:16;15.50;;;9.70;;
57303;SDS011;43150;50.986;18.208;2023-02-13T07:55:50;17.50;;;10.30;;
57303;SDS011;43150;50.986;18.208;2023-02-13T07:58:15;16.90;;;9.80;;
57303;SDS011;43150;50.986;18.208;2023-02-13T08:00:46;17.50;;;9.90;;
57303;SDS011;43150;50.986;18.208;2023-02-13T08:03:19;19.10;;;11.90;;
57303;SDS011;43150;50.986;18.208;2023-02-13T08:05:45;19.60;;;12.60;;
57303;SDS011;43150;50.986;18.208;2023-02-13T08:08:23;13.60;;;8.50;;
57303;SDS011;43150;50.986;18.208;2023-02-13T08:11:01;17.10;;;10.60;;
57303;SDS011;43150;50.986;18.208;2023-02-13T08:13:46;14.00;;;7.80;;
57303;SDS011;43150;50.986;18.208;2023-02-13T08:16:11;13.90;;;8.70;;
57303;SDS011;43150;50.986;18.208;2023-02-13T08:18:36;10.30;;;6.70;;
57303;SDS011;43150;50.986;18.208;2023-02-13T08:21:05;13.40;;;6.80;;
57303;SDS011;43150;50.986;18.208;2023-02-13T08:23:31;9.10;;;5.50;;
57303;SDS011;43150;50.986;18.208;2023-02-13T08:26:00;11.30;;;6.00;;
57303;SDS011;43150;50.986;18.208;2023-02-13T08:28:33;9.80;;;6.10;;
57303;SDS011;43150;50.986;18.208;2023-02-13T08:31:10;12.00;;;6.80;;
57303;SDS011;43150;50.986;18.208;2023-02-13T08:33:36;11.00;;;6.70;;
57303;SDS011;43150;50.986;18.208;2023-02-13T08:36:02;8.80;;;5.40;;
57303;SDS011;43150;50.986;18.208;2023-02-13T08:38:28;11.90;;;7.10;;
57303;SDS011;43150;50.986;18.208;2023-02-13T08:41:07;12.30;;;7.30;;
57303;SDS011;43150;50.986;18.208;2023-02-13T08:43:33;8.50;;;5.10;;
57303;SDS011;43150;50.986;18.208;2023-02-13T08:45:58;12.20;;;6.80;;
57303;SDS011;43150;50.986;18.208;2023-02-13T08:48:27;14.40;;;8.10;;
57303;SDS011;43150;50.986;18.208;2023-02-13T08:50:52;14.20;;;8.30;;
57303;SDS011;43150;50.986;18.208;2023-02-13T08:53:24;15.80;;;9.00;;
57303;SDS011;43150;50.986;18.208;2023-02-13T08:55:54;12.20;;;7.10;;
57303;SDS011;43150;50.986;18.208;2023-02-13T08:58:29;13.20;;;7.40;;
57303;SDS011;43150;50.986;18.208;2023-02-13T09:00:55;14.00;;;7.90;;
57303;SDS011;43150;50.986;18.208;2023-02-13T09:03:27;12.60;;;7.40;;
57303;SDS011;43150;50.986;18.208;2023-02-13T09:05:57;15.20;;;7.90;;
57303;SDS011;43150;50.986;18.208;2023-02-13T09:08:24;15.20;;;7.60;;
57303;SDS011;43150;50.986;18.208;2023-02-13T09:10:58;13.40;;;7.60;;
57303;SDS011;43150;50.986;18.208;2023-02-13T09:15:59;18.80;;;8.70;;
57303;SDS011;43150;50.986;18.208;2023-02-13T09:18:26;14.20;;;7.90;;
57303;SDS011;43150;50.986;18.208;2023-02-13T09:21:07;19.00;;;10.00;;
57303;SDS011;43150;50.986;18.208;2023-02-13T09:23:33;14.90;;;7.50;;
57303;SDS011;43150;50.986;18.208;2023-02-13T09:26:00;19.40;;;8.70;;
57303;SDS011;43150;50.986;18.208;2023-02-13T09:28:34;16.90;;;8.50;;
57303;SDS011;43150;50.986;18.208;2023-02-13T09:31:09;21.40;;;10.50;;
57303;SDS011;43150;50.986;18.208;2023-02-13T09:33:56;19.40;;;10.60;;
57303;SDS011;43150;50.986;18.208;2023-02-13T09:36:23;15.90;;;8.00;;
57303;SDS011;43150;50.986;18.208;2023-02-13T09:38:53;20.10;;;10.60;;
57303;SDS011;43150;50.986;18.208;2023-02-13T09:41:20;19.20;;;10.30;;
57303;SDS011;43150;50.986;18.208;2023-02-13T09:43:52;17.40;;;10.00;;
57303;SDS011;43150;50.986;18.208;2023-02-13T09:46:20;18.70;;;11.00;;
57303;SDS011;43150;50.986;18.208;2023-02-13T09:48:52;16.20;;;9.20;;
57303;SDS011;43150;50.986;18.208;2023-02-13T09:51:21;13.40;;;7.50;;
57303;SDS011;43150;50.986;18.208;2023-02-13T09:54:25;18.90;;;10.60;;
57303;SDS011;43150;50.986;18.208;2023-02-13T10:05:09;17.90;;;10.50;;
57303;SDS011;43150;50.986;18.208;2023-02-13T10:10:26;14.10;;;7.70;;
57303;SDS011;43150;50.986;18.208;2023-02-13T10:13:00;20.80;;;13.10;;
57303;SDS011;43150;50.986;18.208;2023-02-13T10:18:02;14.30;;;8.60;;
57303;SDS011;43150;50.986;18.208;2023-02-13T10:23:01;15.80;;;9.40;;
57303;SDS011;43150;50.986;18.208;2023-02-13T10:25:29;13.00;;;7.00;;
57303;SDS011;43150;50.986;18.208;2023-02-13T10:27:59;15.10;;;8.00;;
57303;SDS011;43150;50.986;18.208;2023-02-13T10:30:29;14.80;;;9.00;;
57303;SDS011;43150;50.986;18.208;2023-02-13T10:33:12;14.20;;;8.50;;
57303;SDS011;43150;50.986;18.208;2023-02-13T10:38:16;16.10;;;9.20;;
57303;SDS011;43150;50.986;18.208;2023-02-13T10:46:36;22.00;;;13.40;;
57303;SDS011;43150;50.986;18.208;2023-02-13T10:51:41;24.40;;;13.10;;
57303;SDS011;43150;50.986;18.208;2023-02-13T10:56:58;19.40;;;12.00;;
57303;SDS011;43150;50.986;18.208;2023-02-13T11:04:56;20.80;;;12.00;;
57303;SDS011;43150;50.986;18.208;2023-02-13T11:07:23;20.90;;;11.70;;
57303;SDS011;43150;50.986;18.208;2023-02-13T11:09:51;17.00;;;9.30;;
57303;SDS011;43150;50.986;18.208;2023-02-13T11:12:23;16.40;;;10.20;;
57303;SDS011;43150;50.986;18.208;2023-02-13T11:14:53;18.30;;;9.80;;
57303;SDS011;43150;50.986;18.208;2023-02-13T11:17:20;11.60;;;7.70;;
57303;SDS011;43150;50.986;18.208;2023-02-13T11:19:50;9.30;;;6.40;;
57303;SDS011;43150;50.986;18.208;2023-02-13T11:22:30;9.10;;;5.40;;
57303;SDS011;43150;50.986;18.208;2023-02-13T11:25:03;7.70;;;5.10;;
57303;SDS011;43150;50.986;18.208;2023-02-13T11:27:34;6.40;;;4.50;;
57303;SDS011;43150;50.986;18.208;2023-02-13T11:32:57;10.20;;;5.00;;
57303;SDS011;43150;50.986;18.208;2023-02-13T11:35:35;7.50;;;4.60;;
57303;SDS011;43150;50.986;18.208;2023-02-13T11:40:34;7.10;;;6.40;;
57303;SDS011;43150;50.986;18.208;2023-02-13T11:43:00;6.80;;;5.40;;
57303;SDS011;43150;50.986;18.208;2023-02-13T11:45:26;6.50;;;5.90;;
57303;SDS011;43150;50.986;18.208;2023-02-13T11:47:55;7.00;;;6.20;;
57303;SDS011;43150;50.986;18.208;2023-02-13T11:50:40;6.70;;;5.70;;
57303;SDS011;43150;50.986;18.208;2023-02-13T11:53:20;6.50;;;5.90;;
57303;SDS011;43150;50.986;18.208;2023-02-13T11:58:44;7.20;;;6.50;;
57303;SDS011;43150;50.986;18.208;2023-02-13T12:03:40;7.20;;;6.20;;
57303;SDS011;43150;50.986;18.208;2023-02-13T12:06:11;6.90;;;6.30;;
57303;SDS011;43150;50.986;18.208;2023-02-13T12:08:41;6.60;;;5.50;;
57303;SDS011;43150;50.986;18.208;2023-02-13T12:11:20;6.40;;;5.80;;
57303;SDS011;43150;50.986;18.208;2023-02-13T12:13:55;7.30;;;3.50;;
57303;SDS011;43150;50.986;18.208;2023-02-13T12:16:29;8.00;;;5.90;;
57303;SDS011;43150;50.986;18.208;2023-02-13T12:19:09;9.20;;;6.60;;
57303;SDS011;43150;50.986;18.208;2023-02-13T12:21:48;12.00;;;7.80;;
57303;SDS011;43150;50.986;18.208;2023-02-13T12:27:13;9.10;;;6.90;;
57303;SDS011;43150;50.986;18.208;2023-02-13T12:32:18;11.50;;;7.10;;
57303;SDS011;43150;50.986;18.208;2023-02-13T12:42:49;7.30;;;4.10;;
57303;SDS011;43150;50.986;18.208;2023-02-13T13:01:12;9.50;;;7.10;;
57303;SDS011;43150;50.986;18.208;2023-02-13T13:04:13;9.90;;;7.30;;
57303;SDS011;43150;50.986;18.208;2023-02-13T13:25:24;7.00;;;5.40;;
57303;SDS011;43150;50.986;18.208;2023-02-13T13:27:57;5.20;;;3.90;;
57303;SDS011;43150;50.986;18.208;2023-02-13T13:30:27;6.10;;;4.30;;
57303;SDS011;43150;50.986;18.208;2023-02-13T13:33:12;5.70;;;3.10;;
57303;SDS011;43150;50.986;18.208;2023-02-13T13:38:17;9.00;;;5.10;;
57303;SDS011;43150;50.986;18.208;2023-02-13T13:40:50;7.50;;;5.20;;
57303;SDS011;43150;50.986;18.208;2023-02-13T13:51:46;5.40;;;3.10;;
57303;SDS011;43150;50.986;18.208;2023-02-13T14:07:26;5.40;;;2.80;;
57303;SDS011;43150;50.986;18.208;2023-02-13T14:10:04;4.70;;;2.80;;
57303;SDS011;43150;50.986;18.208;2023-02-13T14:12:44;6.50;;;3.50;;
57303;SDS011;43150;50.986;18.208;2023-02-13T14:23:06;4.60;;;2.60;;
57303;SDS011;43150;50.986;18.208;2023-02-13T14:25:48;6.50;;;4.70;;
57303;SDS011;43150;50.986;18.208;2023-02-13T14:28:23;8.70;;;3.90;;
57303;SDS011;43150;50.986;18.208;2023-02-13T14:30:50;6.60;;;3.80;;
57303;SDS011;43150;50.986;18.208;2023-02-13T14:33:23;5.70;;;2.80;;
57303;SDS011;43150;50.986;18.208;2023-02-13T14:36:05;7.20;;;3.90;;
57303;SDS011;43150;50.986;18.208;2023-02-13T14:38:38;6.70;;;4.40;;
57303;SDS011;43150;50.986;18.208;2023-02-13T14:43:55;11.30;;;4.70;;
57303;SDS011;43150;50.986;18.208;2023-02-13T14:46:23;11.40;;;6.70;;
57303;SDS011;43150;50.986;18.208;2023-02-13T14:48:59;10.30;;;5.80;;
57303;SDS011;43150;50.986;18.208;2023-02-13T14:51:33;11.10;;;6.00;;
57303;SDS011;43150;50.986;18.208;2023-02-13T14:54:03;10.90;;;5.50;;
57303;SDS011;43150;50.986;18.208;2023-02-13T14:56:30;11.10;;;6.50;;
57303;SDS011;43150;50.986;18.208;2023-02-13T14:58:59;10.90;;;6.10;;
57303;SDS011;43150;50.986;18.208;2023-02-13T15:01:33;8.60;;;5.50;;
57303;SDS011;43150;50.986;18.208;2023-02-13T15:04:10;8.90;;;5.40;;
57303;SDS011;43150;50.986;18.208;2023-02-13T15:06:43;12.10;;;6.90;;
57303;SDS011;43150;50.986;18.208;2023-02-13T15:09:31;13.50;;;7.60;;
57303;SDS011;43150;50.986;18.208;2023-02-13T15:11:58;9.60;;;5.10;;
57303;SDS011;43150;50.986;18.208;2023-02-13T15:19:30;8.60;;;5.40;;
57303;SDS011;43150;50.986;18.208;2023-02-13T15:21:57;9.10;;;6.10;;
57303;SDS011;43150;50.986;18.208;2023-02-13T15:27:27;11.50;;;7.50;;
57303;SDS011;43150;50.986;18.208;2023-02-13T15:29:54;12.00;;;6.90;;
57303;SDS011;43150;50.986;18.208;2023-02-13T15:32:23;11.60;;;6.00;;
57303;SDS011;43150;50.986;18.208;2023-02-13T15:34:50;10.50;;;6.80;;
57303;SDS011;43150;50.986;18.208;2023-02-13T15:37:22;9.60;;;6.80;;
57303;SDS011;43150;50.986;18.208;2023-02-13T15:42:13;11.70;;;6.40;;
57303;SDS011;43150;50.986;18.208;2023-02-13T15:44:39;12.10;;;7.60;;
57303;SDS011;43150;50.986;18.208;2023-02-13T15:47:06;8.50;;;5.90;;
57303;SDS011;43150;50.986;18.208;2023-02-13T15:49:42;12.90;;;8.10;;
57303;SDS011;43150;50.986;18.208;2023-02-13T15:52:17;12.70;;;8.30;;
57303;SDS011;43150;50.986;18.208;2023-02-13T15:54:47;8.90;;;5.80;;
57303;SDS011;43150;50.986;18.208;2023-02-13T15:57:13;9.40;;;5.60;;
57303;SDS011;43150;50.986;18.208;2023-02-13T15:59:39;10.30;;;7.10;;
57303;SDS011;43150;50.986;18.208;2023-02-13T16:02:08;11.50;;;7.70;;
57303;SDS011;43150;50.986;18.208;2023-02-13T16:04:36;12.40;;;7.60;;
57303;SDS011;43150;50.986;18.208;2023-02-13T16:07:01;13.30;;;8.10;;
57303;SDS011;43150;50.986;18.208;2023-02-13T16:09:33;13.40;;;7.70;;
57303;SDS011;43150;50.986;18.208;2023-02-13T16:14:50;12.20;;;7.00;;
57303;SDS011;43150;50.986;18.208;2023-02-13T16:17:22;12.30;;;7.90;;
57303;SDS011;43150;50.986;18.208;2023-02-13T16:19:52;10.00;;;5.90;;
57303;SDS011;43150;50.986;18.208;2023-02-13T16:24:48;12.60;;;8.20;;
57303;SDS011;43150;50.986;18.208;2023-02-13T16:27:15;9.70;;;6.50;;
57303;SDS011;43150;50.986;18.208;2023-02-13T16:29:44;10.90;;;6.20;;
57303;SDS011;43150;50.986;18.208;2023-02-13T16:32:11;9.90;;;6.50;;
57303;SDS011;43150;50.986;18.208;2023-02-13T16:34:42;11.60;;;7.50;;
57303;SDS011;43150;50.986;18.208;2023-02-13T16:37:24;11.00;;;7.20;;
57303;SDS011;43150;50.986;18.208;2023-02-13T16:39:56;9.50;;;6.30;;
57303;SDS011;43150;50.986;18.208;2023-02-13T16:42:41;10.60;;;7.10;;
57303;SDS011;43150;50.986;18.208;2023-02-13T16:45:22;12.50;;;7.10;;
57303;SDS011;43150;50.986;18.208;2023-02-13T16:47:47;11.30;;;7.80;;
57303;SDS011;43150;50.986;18.208;2023-02-13T16:50:27;13.00;;;7.60;;
57303;SDS011;43150;50.986;18.208;2023-02-13T16:52:58;10.40;;;6.90;;
57303;SDS011;43150;50.986;18.208;2023-02-13T16:55:24;10.50;;;7.40;;
57303;SDS011;43150;50.986;18.208;2023-02-13T16:57:50;9.20;;;5.20;;
57303;SDS011;43150;50.986;18.208;2023-02-13T17:00:19;10.40;;;6.20;;
57303;SDS011;43150;50.986;18.208;2023-02-13T17:02:48;8.20;;;5.70;;
57303;SDS011;43150;50.986;18.208;2023-02-13T17:05:17;9.80;;;6.60;;
57303;SDS011;43150;50.986;18.208;2023-02-13T17:10:27;10.50;;;6.20;;
57303;SDS011;43150;50.986;18.208;2023-02-13T17:12:54;10.20;;;6.90;;
57303;SDS011;43150;50.986;18.208;2023-02-13T17:15:25;11.50;;;7.00;;
57303;SDS011;43150;50.986;18.208;2023-02-13T17:17:50;11.90;;;7.10;;
57303;SDS011;43150;50.986;18.208;2023-02-13T17:20:25;12.70;;;7.60;;
57303;SDS011;43150;50.986;18.208;2023-02-13T17:22:52;12.60;;;7.80;;
57303;SDS011;43150;50.986;18.208;2023-02-13T17:25:23;11.10;;;7.60;;
57303;SDS011;43150;50.986;18.208;2023-02-13T17:27:50;10.90;;;5.70;;
57303;SDS011;43150;50.986;18.208;2023-02-13T17:30:17;10.20;;;7.00;;
57303;SDS011;43150;50.986;18.208;2023-02-13T17:32:43;10.70;;;6.90;;
57303;SDS011;43150;50.986;18.208;2023-02-13T17:35:10;12.30;;;6.90;;
57303;SDS011;43150;50.986;18.208;2023-02-13T17:37:35;13.10;;;7.70;;
57303;SDS011;43150;50.986;18.208;2023-02-13T17:40:02;13.10;;;6.60;;
57303;SDS011;43150;50.986;18.208;2023-02-13T17:42:27;9.40;;;6.20;;
57303;SDS011;43150;50.986;18.208;2023-02-13T17:44:54;11.40;;;7.30;;
57303;SDS011;43150;50.986;18.208;2023-02-13T17:47:20;10.20;;;6.60;;
57303;SDS011;43150;50.986;18.208;2023-02-13T17:49:49;10.70;;;6.70;;
57303;SDS011;43150;50.986;18.208;2023-02-13T17:52:25;12.40;;;6.60;;
57303;SDS011;43150;50.986;18.208;2023-02-13T17:54:55;9.70;;;6.30;;